sensor_id;sensor_type;location;lat;lon;timestamp;P1;durP1;ratioP1;P2;durP2;ratioP2
63959;SDS011;50136;51.374;0.096;2023-03-13T00:06:22;19.20;;;4.40;;
63959;SDS011;50136;51.374;0.096;2023-03-13T00:16:27;41.13;;;6.63;;
63959;SDS011;50136;51.374;0.096;2023-03-13T00:26:29;27.63;;;7.03;;
63959;SDS011;50136;51.374;0.096;2023-03-13T00:36:33;37.00;;;9.70;;
63959;SDS011;50136;51.374;0.096;2023-03-13T00:46:36;39.75;;;8.23;;
63959;SDS011;50136;51.374;0.096;2023-03-13T00:56:39;28.92;;;6.60;;
63959;SDS011;50136;51.374;0.096;2023-03-13T01:06:41;39.55;;;6.55;;
63959;SDS011;50136;51.374;0.096;2023-03-13T01:16:45;29.27;;;6.10;;
63959;SDS011;50136;51.374;0.096;2023-03-13T01:26:47;22.67;;;6.15;;
63959;SDS011;50136;51.374;0.096;2023-03-13T01:36:50;28.98;;;7.88;;
63959;SDS011;50136;51.374;0.096;2023-03-13T01:46:52;17.90;;;4.43;;
63959;SDS011;50136;51.374;0.096;2023-03-13T01:56:56;13.65;;;3.05;;
63959;SDS011;50136;51.374;0.096;2023-03-13T02:07:01;9.70;;;3.38;;
63959;SDS011;50136;51.374;0.096;2023-03-13T02:17:08;7.18;;;2.60;;
63959;SDS011;50136;51.374;0.096;2023-03-13T02:27:12;7.00;;;2.40;;
63959;SDS011;50136;51.374;0.096;2023-03-13T02:37:14;11.00;;;2.75;;
63959;SDS011;50136;51.374;0.096;2023-03-13T02:47:20;8.68;;;2.80;;
63959;SDS011;50136;51.374;0.096;2023-03-13T02:57:22;12.18;;;3.35;;
63959;SDS011;50136;51.374;0.096;2023-03-13T03:07:26;17.95;;;3.15;;
63959;SDS011;50136;51.374;0.096;2023-03-13T03:17:28;13.15;;;3.33;;
63959;SDS011;50136;51.374;0.096;2023-03-13T03:27:31;8.82;;;1.73;;
63959;SDS011;50136;51.374;0.096;2023-03-13T03:37:33;4.82;;;1.35;;
63959;SDS011;50136;51.374;0.096;2023-03-13T03:47:36;4.25;;;1.33;;
63959;SDS011;50136;51.374;0.096;2023-03-13T03:57:38;3.85;;;1.17;;
63959;SDS011;50136;51.374;0.096;2023-03-13T04:07:42;3.65;;;1.23;;
63959;SDS011;50136;51.374;0.096;2023-03-13T04:17:44;3.30;;;1.38;;
63959;SDS011;50136;51.374;0.096;2023-03-13T04:27:47;11.40;;;1.92;;
63959;SDS011;50136;51.374;0.096;2023-03-13T04:37:49;8.35;;;2.28;;
63959;SDS011;50136;51.374;0.096;2023-03-13T04:47:52;11.00;;;1.75;;
63959;SDS011;50136;51.374;0.096;2023-03-13T04:57:54;11.18;;;2.63;;
63959;SDS011;50136;51.374;0.096;2023-03-13T05:07:57;10.77;;;2.58;;
63959;SDS011;50136;51.374;0.096;2023-03-13T05:17:59;9.27;;;3.25;;
63959;SDS011;50136;51.374;0.096;2023-03-13T05:28:03;9.77;;;2.95;;
63959;SDS011;50136;51.374;0.096;2023-03-13T05:38:05;16.83;;;4.10;;
63959;SDS011;50136;51.374;0.096;2023-03-13T05:48:08;19.15;;;4.13;;
63959;SDS011;50136;51.374;0.096;2023-03-13T05:58:10;17.80;;;4.65;;
63959;SDS011;50136;51.374;0.096;2023-03-13T06:08:14;24.52;;;4.95;;
63959;SDS011;50136;51.374;0.096;2023-03-13T06:18:15;17.83;;;3.47;;
63959;SDS011;50136;51.374;0.096;2023-03-13T06:28:19;20.23;;;4.25;;
63959;SDS011;50136;51.374;0.096;2023-03-13T06:38:21;22.10;;;5.50;;
63959;SDS011;50136;51.374;0.096;2023-03-13T06:48:24;36.92;;;7.68;;
63959;SDS011;50136;51.374;0.096;2023-03-13T06:58:26;36.47;;;6.65;;
63959;SDS011;50136;51.374;0.096;2023-03-13T07:08:34;29.23;;;8.93;;
63959;SDS011;50136;51.374;0.096;2023-03-13T07:18:37;34.05;;;7.97;;
63959;SDS011;50136;51.374;0.096;2023-03-13T07:28:41;52.47;;;12.90;;
63959;SDS011;50136;51.374;0.096;2023-03-13T07:38:46;36.53;;;7.07;;
63959;SDS011;50136;51.374;0.096;2023-03-13T07:48:49;41.15;;;10.10;;
63959;SDS011;50136;51.374;0.096;2023-03-13T07:58:51;43.65;;;10.68;;
63959;SDS011;50136;51.374;0.096;2023-03-13T08:08:56;36.25;;;8.15;;
63959;SDS011;50136;51.374;0.096;2023-03-13T08:18:59;48.40;;;9.38;;
63959;SDS011;50136;51.374;0.096;2023-03-13T08:29:04;48.45;;;9.20;;
63959;SDS011;50136;51.374;0.096;2023-03-13T08:39:08;39.00;;;8.48;;
63959;SDS011;50136;51.374;0.096;2023-03-13T08:49:13;38.95;;;9.00;;
63959;SDS011;50136;51.374;0.096;2023-03-13T08:59:15;51.40;;;8.35;;
63959;SDS011;50136;51.374;0.096;2023-03-13T09:09:19;57.67;;;10.70;;
63959;SDS011;50136;51.374;0.096;2023-03-13T09:19:21;48.92;;;9.38;;
63959;SDS011;50136;51.374;0.096;2023-03-13T09:29:24;45.30;;;8.73;;
63959;SDS011;50136;51.374;0.096;2023-03-13T09:39:26;56.50;;;10.88;;
63959;SDS011;50136;51.374;0.096;2023-03-13T09:49:30;50.60;;;8.98;;
63959;SDS011;50136;51.374;0.096;2023-03-13T09:59:36;52.30;;;10.50;;
63959;SDS011;50136;51.374;0.096;2023-03-13T10:09:45;47.60;;;9.33;;
63959;SDS011;50136;51.374;0.096;2023-03-13T10:19:50;44.13;;;10.38;;
63959;SDS011;50136;51.374;0.096;2023-03-13T10:29:58;78.47;;;14.13;;
63959;SDS011;50136;51.374;0.096;2023-03-13T10:40:10;51.90;;;11.23;;
63959;SDS011;50136;51.374;0.096;2023-03-13T10:50:18;47.58;;;10.88;;
63959;SDS011;50136;51.374;0.096;2023-03-13T11:00:32;52.07;;;11.43;;
63959;SDS011;50136;51.374;0.096;2023-03-13T11:10:37;39.47;;;10.40;;
63959;SDS011;50136;51.374;0.096;2023-03-13T11:20:52;44.90;;;8.95;;
63959;SDS011;50136;51.374;0.096;2023-03-13T11:30:59;40.30;;;9.13;;
63959;SDS011;50136;51.374;0.096;2023-03-13T11:52:15;48.33;;;10.38;;
63959;SDS011;50136;51.374;0.096;2023-03-13T12:02:25;44.45;;;9.60;;
63959;SDS011;50136;51.374;0.096;2023-03-13T12:12:38;43.20;;;9.38;;
63959;SDS011;50136;51.374;0.096;2023-03-13T12:22:45;47.42;;;9.48;;
63959;SDS011;50136;51.374;0.096;2023-03-13T12:32:55;38.88;;;9.20;;
63959;SDS011;50136;51.374;0.096;2023-03-13T12:43:03;52.28;;;11.98;;
63959;SDS011;50136;51.374;0.096;2023-03-13T12:53:19;53.83;;;12.00;;
63959;SDS011;50136;51.374;0.096;2023-03-13T13:03:35;49.28;;;10.63;;
63959;SDS011;50136;51.374;0.096;2023-03-13T13:13:41;44.47;;;9.73;;
63959;SDS011;50136;51.374;0.096;2023-03-13T13:23:43;45.30;;;11.32;;
63959;SDS011;50136;51.374;0.096;2023-03-13T13:33:47;44.28;;;9.60;;
63959;SDS011;50136;51.374;0.096;2023-03-13T13:43:50;44.00;;;8.73;;
63959;SDS011;50136;51.374;0.096;2023-03-13T13:54:31;43.25;;;8.68;;
63959;SDS011;50136;51.374;0.096;2023-03-13T14:04:35;48.33;;;9.68;;
63959;SDS011;50136;51.374;0.096;2023-03-13T14:14:42;44.00;;;9.98;;
63959;SDS011;50136;51.374;0.096;2023-03-13T14:24:47;47.63;;;10.45;;
63959;SDS011;50136;51.374;0.096;2023-03-13T14:34:58;43.25;;;10.55;;
63959;SDS011;50136;51.374;0.096;2023-03-13T14:45:01;40.65;;;7.78;;
63959;SDS011;50136;51.374;0.096;2023-03-13T14:55:30;42.53;;;10.77;;
63959;SDS011;50136;51.374;0.096;2023-03-13T15:05:34;43.92;;;11.60;;
63959;SDS011;50136;51.374;0.096;2023-03-13T15:15:37;40.90;;;8.80;;
63959;SDS011;50136;51.374;0.096;2023-03-13T15:25:39;57.75;;;10.27;;
63959;SDS011;50136;51.374;0.096;2023-03-13T15:35:43;48.13;;;8.43;;
63959;SDS011;50136;51.374;0.096;2023-03-13T15:45:45;39.33;;;9.40;;
63959;SDS011;50136;51.374;0.096;2023-03-13T15:55:51;42.00;;;9.45;;
63959;SDS011;50136;51.374;0.096;2023-03-13T16:05:55;33.55;;;7.80;;
63959;SDS011;50136;51.374;0.096;2023-03-13T16:15:58;40.08;;;7.55;;
63959;SDS011;50136;51.374;0.096;2023-03-13T16:26:00;41.45;;;11.02;;
63959;SDS011;50136;51.374;0.096;2023-03-13T16:36:08;47.15;;;7.13;;
63959;SDS011;50136;51.374;0.096;2023-03-13T16:46:15;30.45;;;6.53;;
63959;SDS011;50136;51.374;0.096;2023-03-13T16:56:24;37.97;;;9.48;;
63959;SDS011;50136;51.374;0.096;2023-03-13T17:06:30;42.17;;;8.20;;
63959;SDS011;50136;51.374;0.096;2023-03-13T17:16:37;46.28;;;8.93;;
63959;SDS011;50136;51.374;0.096;2023-03-13T17:26:41;30.80;;;7.50;;
63959;SDS011;50136;51.374;0.096;2023-03-13T17:36:45;40.85;;;10.43;;
63959;SDS011;50136;51.374;0.096;2023-03-13T17:46:47;28.70;;;6.97;;
63959;SDS011;50136;51.374;0.096;2023-03-13T17:56:50;36.30;;;7.68;;
63959;SDS011;50136;51.374;0.096;2023-03-13T18:06:53;42.80;;;8.52;;
63959;SDS011;50136;51.374;0.096;2023-03-13T18:16:56;38.72;;;6.75;;
63959;SDS011;50136;51.374;0.096;2023-03-13T18:26:58;26.83;;;5.05;;
63959;SDS011;50136;51.374;0.096;2023-03-13T18:37:01;19.77;;;4.32;;
63959;SDS011;50136;51.374;0.096;2023-03-13T18:47:08;27.40;;;5.85;;
63959;SDS011;50136;51.374;0.096;2023-03-13T19:29:12;25.83;;;5.13;;
63959;SDS011;50136;51.374;0.096;2023-03-13T19:39:16;26.95;;;5.50;;
63959;SDS011;50136;51.374;0.096;2023-03-13T19:49:21;24.67;;;6.15;;
63959;SDS011;50136;51.374;0.096;2023-03-13T19:59:23;27.70;;;9.27;;
63959;SDS011;50136;51.374;0.096;2023-03-13T20:09:27;30.63;;;6.50;;
63959;SDS011;50136;51.374;0.096;2023-03-13T20:19:29;18.00;;;3.60;;
63959;SDS011;50136;51.374;0.096;2023-03-13T20:29:33;20.92;;;4.43;;
63959;SDS011;50136;51.374;0.096;2023-03-13T20:39:35;23.08;;;4.93;;
63959;SDS011;50136;51.374;0.096;2023-03-13T20:49:38;20.38;;;3.58;;
63959;SDS011;50136;51.374;0.096;2023-03-13T20:59:40;28.35;;;4.70;;
63959;SDS011;50136;51.374;0.096;2023-03-13T21:09:43;30.75;;;6.70;;
63959;SDS011;50136;51.374;0.096;2023-03-13T21:19:45;13.45;;;3.80;;
63959;SDS011;50136;51.374;0.096;2023-03-13T21:29:49;27.85;;;6.28;;
63959;SDS011;50136;51.374;0.096;2023-03-13T21:39:51;23.88;;;5.15;;
63959;SDS011;50136;51.374;0.096;2023-03-13T21:49:55;30.83;;;4.68;;
63959;SDS011;50136;51.374;0.096;2023-03-13T22:11:13;27.55;;;6.07;;
63959;SDS011;50136;51.374;0.096;2023-03-13T22:31:40;42.00;;;8.18;;
63959;SDS011;50136;51.374;0.096;2023-03-13T22:41:42;24.40;;;5.43;;
63959;SDS011;50136;51.374;0.096;2023-03-13T22:51:46;39.20;;;5.43;;
63959;SDS011;50136;51.374;0.096;2023-03-13T23:01:48;30.48;;;5.70;;
63959;SDS011;50136;51.374;0.096;2023-03-13T23:11:51;29.70;;;6.82;;
63959;SDS011;50136;51.374;0.096;2023-03-13T23:21:53;33.35;;;5.80;;
63959;SDS011;50136;51.374;0.096;2023-03-13T23:31:56;39.30;;;6.30;;
63959;SDS011;50136;51.374;0.096;2023-03-13T23:41:58;30.80;;;5.32;;
63959;SDS011;50136;51.374;0.096;2023-03-13T23:52:01;37.85;;;10.63;;
